Time;durP1;ratioP1;P1;durP2;ratioP2;P2;SDS_P1;SDS_P2;PMS_P1;PMS_P2;Temp;Humidity;BMP_temperature;BMP_pressure;BME280_temperature;BME280_humidity;BME280_pressure;Samples;Min_cycle;Max_cycle;Signal;HPM_P1;HPM_P2
2023/03/30 00:03:01;;;;;;;28.48;19.13;;;8.00;99.90;;;;;;4989309;28;20093;-81
2023/03/30 00:05:28;;;;;;;28.15;19.65;;;7.90;99.90;;;;;;4997969;28;20026;-82
2023/03/30 00:07:54;;;;;;;33.35;21.05;;;7.90;99.90;;;;;;5000495;28;20443;-81
2023/03/30 00:10:20;;;;;;;29.13;19.70;;;7.90;99.90;;;;;;5015871;28;20030;-82
2023/03/30 00:12:50;;;;;;;30.00;19.67;;;7.90;99.90;;;;;;4994783;28;20081;-80
2023/03/30 00:15:20;;;;;;;31.25;19.38;;;7.90;99.90;;;;;;4994875;28;20057;-80
2023/03/30 00:17:46;;;;;;;29.17;20.85;;;7.80;99.90;;;;;;4999263;28;20054;-79
2023/03/30 00:20:13;;;;;;;29.88;21.25;;;7.80;99.90;;;;;;4994735;28;20031;-80
2023/03/30 00:22:44;;;;;;;30.98;19.98;;;7.80;99.90;;;;;;4997037;28;20022;-81
2023/03/30 00:25:12;;;;;;;35.33;22.60;;;7.80;99.90;;;;;;4995768;28;20441;-80
2023/03/30 00:27:39;;;;;;;29.15;21.10;;;7.80;99.90;;;;;;4994975;28;20494;-82
2023/03/30 00:30:10;;;;;;;32.25;20.85;;;7.80;99.90;;;;;;4993758;28;20022;-81
2023/03/30 00:32:35;;;;;;;38.08;24.73;;;7.70;99.90;;;;;;4994376;28;20072;-81
2023/03/30 00:35:01;;;;;;;40.03;23.73;;;7.70;99.90;;;;;;4993732;28;20034;-80
2023/03/30 00:37:28;;;;;;;36.28;23.10;;;7.80;99.90;;;;;;4999556;28;20029;-79
2023/03/30 00:39:55;;;;;;;33.83;23.17;;;7.80;99.90;;;;;;4997973;28;20471;-79
2023/03/30 00:42:21;;;;;;;35.65;23.80;;;7.70;99.90;;;;;;4997211;28;20023;-81
2023/03/30 00:45:08;;;;;;;32.58;23.38;;;7.70;99.90;;;;;;4997081;28;20037;-81
2023/03/30 00:47:40;;;;;;;37.50;25.50;;;7.70;99.90;;;;;;5022293;28;20085;-82
2023/03/30 00:50:11;;;;;;;29.90;21.88;;;7.70;99.90;;;;;;4999500;28;20475;-81
2023/03/30 00:52:39;;;;;;;34.75;24.73;;;7.70;99.90;;;;;;4999628;28;20022;-81
2023/03/30 00:55:06;;;;;;;;;;;7.60;99.90;;;;;;5010218;28;20117;-80
2023/03/30 00:57:35;;;;;;;27.58;19.50;;;7.60;99.90;;;;;;5002369;28;20367;-80
2023/03/30 01:00:05;;;;;;;37.65;21.05;;;7.50;99.90;;;;;;4994695;28;20393;-81
2023/03/30 01:02:36;;;;;;;33.17;22.13;;;7.40;99.90;;;;;;4997109;28;20029;-81
2023/03/30 01:05:03;;;;;;;36.08;24.40;;;7.40;99.90;;;;;;4995457;28;20018;-81
2023/03/30 01:07:30;;;;;;;37.85;24.60;;;7.30;99.90;;;;;;4988455;28;20033;-81
2023/03/30 01:09:57;;;;;;;39.17;24.13;;;7.40;99.90;;;;;;4990591;28;20540;-81
2023/03/30 01:12:23;;;;;;;16.77;11.80;;;7.40;99.90;;;;;;4993896;28;20441;-80
2023/03/30 01:14:49;;;;;;;18.88;13.57;;;7.40;99.90;;;;;;4996425;28;20121;-79
2023/03/30 01:17:31;;;;;;;24.55;14.98;;;7.20;99.90;;;;;;5002841;28;20066;-81
2023/03/30 01:20:35;;;;;;;14.13;10.43;;;7.20;99.90;;;;;;5000116;28;20022;-80
2023/03/30 01:23:34;;;;;;;15.98;11.55;;;7.20;99.90;;;;;;4995765;28;20022;-80
2023/03/30 01:26:38;;;;;;;16.83;11.45;;;7.20;99.90;;;;;;4983995;28;20428;-81
2023/03/30 01:29:04;;;;;;;16.90;11.35;;;7.20;99.90;;;;;;4992016;28;20025;-82
2023/03/30 01:32:20;;;;;;;16.60;11.07;;;7.20;99.90;;;;;;4993458;28;20541;-81
2023/03/30 01:35:05;;;;;;;;;;;7.20;99.90;;;;;;4955012;28;20038;-81
2023/03/30 01:38:12;;;;;;;13.25;9.63;;;7.20;99.90;;;;;;4994630;28;19921;-81
2023/03/30 01:41:02;;;;;;;13.80;9.23;;;7.20;99.90;;;;;;4939205;29;20482;-81
2023/03/30 01:43:54;;;;;;;12.80;9.35;;;7.20;99.90;;;;;;4933357;29;20123;-80
2023/03/30 01:46:29;;;;;;;14.75;9.95;;;7.20;99.90;;;;;;4933820;29;20035;-81
2023/03/30 01:49:09;;;;;;;12.20;8.98;;;7.20;99.90;;;;;;4935103;29;20036;-79
2023/03/30 01:51:43;;;;;;;15.38;9.73;;;7.20;99.90;;;;;;4919819;29;20087;-79
2023/03/30 01:54:20;;;;;;;13.05;8.60;;;7.20;99.90;;;;;;4935980;29;20123;-78
2023/03/30 01:57:05;;;;;;;10.88;8.02;;;7.30;99.90;;;;;;4935447;29;20046;-79
2023/03/30 01:59:53;;;;;;;12.60;8.27;;;7.30;99.90;;;;;;4936911;29;20031;-79
2023/03/30 02:02:21;;;;;;;12.68;8.43;;;7.30;99.90;;;;;;4924756;29;20038;-79
2023/03/30 02:04:52;;;;;;;12.20;7.95;;;7.30;99.90;;;;;;4933242;29;20441;-81
2023/03/30 02:07:22;;;;;;;11.77;8.27;;;7.30;99.90;;;;;;4937076;28;20031;-81
2023/03/30 02:09:51;;;;;;;11.15;8.57;;;7.30;99.90;;;;;;4932902;29;20047;-81
2023/03/30 02:12:18;;;;;;;11.32;7.68;;;7.40;99.90;;;;;;4932908;29;20089;-82
2023/03/30 02:14:48;;;;;;;10.10;8.05;;;7.30;99.90;;;;;;4967868;28;20060;-81
2023/03/30 02:17:21;;;;;;;10.98;8.40;;;7.40;99.90;;;;;;4991483;28;20061;-81
2023/03/30 02:19:48;;;;;;;10.68;8.15;;;7.40;99.90;;;;;;4993031;28;20133;-80
2023/03/30 02:22:16;;;;;;;11.98;8.10;;;7.30;99.90;;;;;;4992098;28;20034;-80
2023/03/30 02:24:44;;;;;;;12.55;7.85;;;7.30;99.90;;;;;;4993922;28;20062;-81
2023/03/30 02:27:11;;;;;;;10.30;7.25;;;7.30;99.90;;;;;;4995216;28;20022;-81
2023/03/30 02:29:41;;;;;;;11.20;8.23;;;7.30;99.90;;;;;;4998077;28;20030;-80
2023/03/30 02:32:15;;;;;;;13.02;8.55;;;7.30;99.90;;;;;;4990251;28;20089;-80
2023/03/30 02:35:14;;;;;;;9.48;7.25;;;7.40;99.90;;;;;;4992745;28;20104;-80
2023/03/30 02:37:56;;;;;;;11.73;7.38;;;7.40;99.90;;;;;;4966130;28;20023;-80
2023/03/30 02:40:52;;;;;;;9.93;6.55;;;7.30;99.90;;;;;;4993024;28;20160;-81
2023/03/30 02:43:33;;;;;;;8.93;6.47;;;7.30;99.90;;;;;;4992257;28;20073;-81
2023/03/30 02:46:05;;;;;;;8.75;6.53;;;7.30;99.90;;;;;;4992589;28;20122;-79
2023/03/30 02:49:07;;;;;;;9.23;6.18;;;7.30;99.90;;;;;;5006854;28;20023;-81
2023/03/30 02:51:49;;;;;;;9.23;7.00;;;7.20;99.90;;;;;;4992800;28;20042;-81
2023/03/30 02:54:27;;;;;;;11.20;8.48;;;7.10;99.90;;;;;;4995700;28;20069;-80
2023/03/30 02:57:15;;;;;;;11.45;7.60;;;7.20;99.90;;;;;;4996243;28;20100;-79
2023/03/30 02:59:43;;;;;;;9.88;7.38;;;7.20;99.90;;;;;;4995485;28;20492;-80
2023/03/30 03:02:21;;;;;;;11.38;8.02;;;7.20;99.90;;;;;;5012027;28;20030;-82
2023/03/30 03:04:51;;;;;;;10.07;7.65;;;7.10;99.90;;;;;;4996981;28;20018;-81
2023/03/30 03:07:19;;;;;;;13.07;8.77;;;7.00;99.90;;;;;;4996172;28;20030;-80
2023/03/30 03:09:45;;;;;;;11.70;8.77;;;7.00;99.90;;;;;;5002987;28;20026;-81
2023/03/30 03:12:11;;;;;;;12.95;8.65;;;7.00;99.90;;;;;;4996925;28;20053;-80
2023/03/30 03:14:38;;;;;;;10.63;8.00;;;7.00;99.90;;;;;;5000592;28;20030;-81
2023/03/30 03:17:05;;;;;;;9.55;6.95;;;7.10;99.90;;;;;;5002237;28;20053;-79
2023/03/30 03:19:31;;;;;;;9.13;7.18;;;7.00;99.90;;;;;;4994785;28;20073;-79
2023/03/30 03:21:57;;;;;;;9.93;6.95;;;7.00;99.90;;;;;;4997019;28;20423;-80
2023/03/30 03:24:23;;;;;;;8.10;6.72;;;7.00;99.90;;;;;;4995100;28;20086;-80
2023/03/30 03:26:49;;;;;;;8.18;6.57;;;7.00;99.90;;;;;;4997021;28;20057;-81
2023/03/30 03:29:15;;;;;;;9.15;6.85;;;7.00;99.90;;;;;;5007375;28;20087;-79
2023/03/30 03:31:41;;;;;;;9.40;6.32;;;6.90;99.90;;;;;;5008431;28;20440;-80
2023/03/30 03:34:07;;;;;;;11.32;7.43;;;6.90;99.90;;;;;;5015348;28;20026;-79
2023/03/30 03:36:33;;;;;;;11.80;6.75;;;6.90;99.90;;;;;;5011772;28;20049;-80
2023/03/30 03:38:59;;;;;;;11.75;7.63;;;6.90;99.90;;;;;;4996842;28;20034;-80
2023/03/30 03:41:25;;;;;;;9.88;6.90;;;6.90;99.90;;;;;;5005446;28;20026;-80
2023/03/30 03:43:51;;;;;;;9.00;6.70;;;6.90;99.90;;;;;;5004395;28;20033;-80
2023/03/30 03:46:17;;;;;;;11.82;7.00;;;6.90;99.90;;;;;;5003258;28;20045;-81
2023/03/30 03:48:43;;;;;;;8.73;6.18;;;6.90;99.90;;;;;;5014611;28;20480;-80
2023/03/30 03:51:10;;;;;;;9.57;7.00;;;7.00;99.90;;;;;;4998929;28;20049;-80
2023/03/30 03:53:35;;;;;;;7.72;5.70;;;7.00;99.90;;;;;;5000716;28;20034;-79
2023/03/30 03:56:02;;;;;;;14.13;6.57;;;7.00;99.90;;;;;;4999495;28;20451;-81
2023/03/30 03:58:28;;;;;;;12.15;6.47;;;7.00;99.90;;;;;;4997589;28;20034;-80
2023/03/30 04:00:59;;;;;;;10.05;6.40;;;7.00;99.90;;;;;;4997797;28;20027;-80
2023/03/30 04:03:25;;;;;;;9.07;6.68;;;7.00;99.90;;;;;;4996019;28;20022;-79
2023/03/30 04:05:50;;;;;;;9.48;6.72;;;7.00;99.90;;;;;;4998002;28;20400;-78
2023/03/30 04:08:17;;;;;;;11.88;8.15;;;7.00;99.90;;;;;;5005554;28;20046;-81
2023/03/30 04:10:44;;;;;;;10.32;7.40;;;7.00;99.90;;;;;;5003690;28;20046;-80
2023/03/30 04:13:09;;;;;;;10.27;7.43;;;7.00;99.90;;;;;;5007589;28;20030;-80
2023/03/30 04:15:35;;;;;;;9.02;6.65;;;7.00;99.90;;;;;;5002473;28;20030;-80
2023/03/30 04:18:04;;;;;;;7.65;5.65;;;6.90;99.90;;;;;;5000253;28;20109;-80
2023/03/30 04:20:30;;;;;;;8.63;6.35;;;6.90;99.90;;;;;;5000730;28;20027;-79
2023/03/30 04:22:56;;;;;;;9.95;6.72;;;6.90;99.90;;;;;;4996412;28;20018;-80
2023/03/30 04:25:24;;;;;;;8.25;6.40;;;6.90;99.90;;;;;;4999900;28;20014;-81
2023/03/30 04:27:52;;;;;;;8.32;5.93;;;6.90;99.90;;;;;;4999287;28;20026;-80
2023/03/30 04:30:18;;;;;;;;;;;6.90;99.90;;;;;;4995642;28;20069;-80
2023/03/30 04:32:53;;;;;;;9.20;5.55;;;6.90;99.90;;;;;;4995372;28;19913;-80
2023/03/30 04:35:19;;;;;;;8.85;6.65;;;6.90;99.90;;;;;;4995822;28;20564;-80
2023/03/30 04:37:45;;;;;;;9.55;5.90;;;7.00;99.90;;;;;;4995616;28;20026;-79
2023/03/30 04:40:12;;;;;;;8.50;6.03;;;7.00;99.90;;;;;;4991855;28;20468;-79
2023/03/30 04:42:38;;;;;;;6.85;5.40;;;7.00;99.90;;;;;;4995711;28;20050;-78
2023/03/30 04:45:06;;;;;;;7.80;5.63;;;7.00;99.90;;;;;;5010868;28;20479;-80
2023/03/30 04:47:32;;;;;;;;;;;7.10;99.90;;;;;;4995342;28;20431;-80
2023/03/30 04:49:59;;;;;;;7.00;5.88;;;7.10;99.90;;;;;;4994161;28;19936;-81
2023/03/30 04:52:26;;;;;;;8.23;6.35;;;7.10;99.90;;;;;;4995570;28;20018;-81
2023/03/30 04:54:52;;;;;;;9.25;5.30;;;7.10;99.90;;;;;;4994903;28;20105;-81
2023/03/30 04:57:18;;;;;;;8.77;6.55;;;7.10;99.90;;;;;;5000537;28;20022;-79
2023/03/30 04:59:44;;;;;;;7.90;5.88;;;7.30;99.90;;;;;;5009928;28;20437;-78
2023/03/30 05:02:11;;;;;;;8.82;6.50;;;7.30;99.90;;;;;;4994431;28;20089;-83
2023/03/30 05:04:38;;;;;;;8.35;6.68;;;7.40;99.90;;;;;;4994927;28;20579;-80
2023/03/30 05:07:05;;;;;;;9.47;6.80;;;7.40;99.90;;;;;;4997023;28;20152;-82
2023/03/30 05:09:32;;;;;;;10.57;6.60;;;7.50;99.90;;;;;;5002985;28;20508;-82
2023/03/30 05:11:58;;;;;;;11.35;6.93;;;7.50;99.90;;;;;;5004706;28;20569;-80
2023/03/30 05:14:24;;;;;;;8.82;6.20;;;7.60;99.90;;;;;;4994543;28;20061;-81
2023/03/30 05:16:50;;;;;;;6.47;5.38;;;7.70;99.80;;;;;;5012915;28;20046;-81
2023/03/30 05:19:16;;;;;;;8.73;5.97;;;7.70;99.20;;;;;;4994125;28;20010;-81
2023/03/30 05:21:42;;;;;;;7.38;5.55;;;7.70;99.00;;;;;;4996821;28;20222;-81
2023/03/30 05:24:11;;;;;;;6.85;5.53;;;7.70;98.90;;;;;;5000548;28;20022;-81
2023/03/30 05:26:37;;;;;;;10.57;6.05;;;7.70;98.70;;;;;;4994442;28;20108;-82
2023/03/30 05:29:03;;;;;;;7.85;5.10;;;7.70;98.60;;;;;;4994963;28;20078;-80
2023/03/30 05:31:29;;;;;;;6.25;5.35;;;7.60;98.10;;;;;;4994514;28;20041;-80
2023/03/30 05:33:55;;;;;;;8.45;5.65;;;7.50;98.00;;;;;;4992467;28;20034;-81
2023/03/30 05:36:21;;;;;;;10.90;5.53;;;7.50;98.10;;;;;;5000366;28;20033;-79
2023/03/30 05:38:47;;;;;;;5.93;4.53;;;7.50;97.80;;;;;;4992909;28;20026;-80
2023/03/30 05:41:13;;;;;;;5.63;4.25;;;7.50;97.60;;;;;;4992893;28;20034;-79
2023/03/30 05:43:39;;;;;;;8.57;5.25;;;7.40;97.30;;;;;;4993602;28;20022;-80
2023/03/30 05:46:05;;;;;;;5.68;4.43;;;7.50;97.40;;;;;;4996253;28;20030;-81
2023/03/30 05:48:32;;;;;;;4.53;3.97;;;7.50;97.20;;;;;;4995165;28;20029;-81
2023/03/30 05:50:58;;;;;;;8.18;5.38;;;7.50;97.10;;;;;;4994698;28;20443;-81
2023/03/30 05:53:23;;;;;;;8.52;5.47;;;7.60;97.20;;;;;;4995245;28;20090;-81
2023/03/30 05:55:49;;;;;;;6.70;4.88;;;7.80;97.10;;;;;;4996140;28;20056;-82
2023/03/30 05:58:16;;;;;;;5.72;4.13;;;7.90;96.50;;;;;;5007433;28;20029;-81
2023/03/30 06:00:43;;;;;;;7.30;3.97;;;8.00;96.30;;;;;;4992859;28;20157;-81
2023/03/30 06:03:11;;;;;;;5.25;4.38;;;8.00;95.80;;;;;;4994698;28;20037;-81
2023/03/30 06:05:38;;;;;;;5.85;4.18;;;7.90;95.50;;;;;;4993254;28;20033;-81
2023/03/30 06:08:08;;;;;;;6.57;4.20;;;7.90;95.50;;;;;;4998486;28;20030;-81
2023/03/30 06:10:34;;;;;;;4.40;3.85;;;8.00;95.50;;;;;;5000420;28;20027;-81
2023/03/30 06:13:00;;;;;;;5.73;3.70;;;8.10;95.10;;;;;;5005143;28;20483;-81
2023/03/30 06:15:27;;;;;;;5.32;4.00;;;8.10;95.10;;;;;;5000248;28;20299;-81
2023/03/30 06:17:53;;;;;;;6.70;4.28;;;8.10;94.90;;;;;;4997351;28;20467;-81
2023/03/30 06:20:20;;;;;;;6.65;3.75;;;8.30;95.00;;;;;;4975817;28;20369;-80
2023/03/30 06:22:49;;;;;;;5.55;4.15;;;8.40;94.60;;;;;;4993556;28;20559;-81
2023/03/30 06:25:15;;;;;;;5.50;4.03;;;8.50;94.40;;;;;;5001000;28;20026;-80
2023/03/30 06:27:41;;;;;;;7.78;5.13;;;8.50;94.10;;;;;;4999978;28;20491;-82
2023/03/30 06:30:11;;;;;;;6.60;4.65;;;8.60;94.10;;;;;;4998559;28;20027;-80
2023/03/30 06:32:37;;;;;;;5.25;3.88;;;8.70;94.00;;;;;;5002198;28;20026;-82
2023/03/30 06:35:04;;;;;;;7.22;4.82;;;8.70;93.90;;;;;;4996069;28;20033;-81
2023/03/30 06:37:31;;;;;;;6.07;4.70;;;8.70;93.70;;;;;;4995798;28;20034;-80
2023/03/30 06:39:57;;;;;;;13.05;5.03;;;8.70;93.80;;;;;;4996228;28;20113;-80
2023/03/30 06:42:26;;;;;;;7.47;5.28;;;8.70;93.90;;;;;;4996889;28;20547;-80
2023/03/30 06:44:52;;;;;;;6.50;5.47;;;8.80;93.80;;;;;;4995540;28;20049;-79
2023/03/30 06:47:18;;;;;;;8.57;5.45;;;8.80;93.80;;;;;;4997666;28;20022;-80
2023/03/30 06:49:45;;;;;;;8.80;5.73;;;9.10;93.80;;;;;;4996203;28;20484;-80
2023/03/30 06:52:12;;;;;;;8.98;4.95;;;9.30;93.50;;;;;;4995930;28;20015;-80
2023/03/30 06:54:38;;;;;;;9.05;5.25;;;9.60;92.90;;;;;;4996667;28;20097;-81
2023/03/30 06:57:04;;;;;;;9.00;4.90;;;9.90;92.60;;;;;;4996925;28;20037;-81
2023/03/30 06:59:32;;;;;;;11.15;5.93;;;10.20;91.90;;;;;;4999400;28;20019;-80
2023/03/30 07:01:58;;;;;;;6.63;4.97;;;10.50;91.20;;;;;;5002684;28;20022;-81
2023/03/30 07:04:24;;;;;;;7.13;4.90;;;10.80;90.50;;;;;;5008680;28;20046;-82
2023/03/30 07:06:51;;;;;;;12.48;5.35;;;10.90;89.70;;;;;;5003091;28;20026;-80
2023/03/30 07:09:17;;;;;;;7.13;4.28;;;11.00;89.10;;;;;;5013351;28;20384;-81
2023/03/30 07:11:43;;;;;;;9.50;5.43;;;11.10;86.80;;;;;;4999123;28;20029;-81
2023/03/30 07:14:11;;;;;;;5.22;4.00;;;11.30;86.50;;;;;;5000322;28;20022;-82
2023/03/30 07:16:37;;;;;;;10.13;4.97;;;11.50;85.20;;;;;;5003122;28;20492;-81
2023/03/30 07:19:05;;;;;;;5.70;4.43;;;11.60;84.10;;;;;;5003123;28;20041;-81
2023/03/30 07:21:31;;;;;;;11.00;4.88;;;11.60;82.60;;;;;;5003360;28;20058;-81
2023/03/30 07:24:00;;;;;;;7.15;4.38;;;11.50;83.00;;;;;;5007554;28;20407;-79
2023/03/30 07:26:27;;;;;;;5.78;3.25;;;11.50;82.40;;;;;;5023419;28;20022;-79
2023/03/30 07:28:55;;;;;;;6.70;3.75;;;11.20;80.90;;;;;;5003440;28;20033;-79
2023/03/30 07:31:23;;;;;;;5.00;2.88;;;10.80;80.60;;;;;;4998662;28;20026;-80
2023/03/30 07:33:49;;;;;;;5.00;3.22;;;10.60;80.40;;;;;;4996474;28;20034;-80
2023/03/30 07:36:15;;;;;;;5.72;3.47;;;10.30;80.90;;;;;;4996417;28;20027;-81
2023/03/30 07:38:41;;;;;;;4.85;3.47;;;10.10;80.40;;;;;;4995839;28;20019;-81
2023/03/30 07:41:09;;;;;;;3.97;3.65;;;9.90;80.50;;;;;;4998535;28;20104;-81
2023/03/30 07:43:36;;;;;;;4.45;3.35;;;9.80;81.20;;;;;;4998005;28;20085;-81
2023/03/30 07:46:02;;;;;;;8.85;3.88;;;9.50;82.20;;;;;;4996677;28;20130;-80
2023/03/30 07:48:28;;;;;;;5.72;3.33;;;9.30;83.30;;;;;;4999295;28;20061;-81
2023/03/30 07:51:07;;;;;;;5.00;3.67;;;9.10;83.80;;;;;;4998093;28;20454;-79
2023/03/30 07:53:32;;;;;;;8.30;3.90;;;8.90;84.70;;;;;;4998030;28;20053;-80
2023/03/30 07:55:59;;;;;;;5.25;3.45;;;8.80;85.50;;;;;;4997179;28;20484;-80
2023/03/30 07:58:26;;;;;;;12.50;6.78;;;8.70;85.30;;;;;;5011776;28;20029;-79
2023/03/30 08:00:52;;;;;;;6.15;3.75;;;8.60;85.90;;;;;;4998202;28;20419;-81
2023/03/30 08:03:20;;;;;;;7.05;3.75;;;8.60;86.00;;;;;;4996113;28;20034;-81
2023/03/30 08:05:59;;;;;;;4.95;3.45;;;8.50;86.20;;;;;;4997763;28;20476;-81
2023/03/30 08:08:26;;;;;;;4.93;3.63;;;8.40;86.50;;;;;;4997225;28;20018;-80
2023/03/30 08:10:52;;;;;;;5.80;3.42;;;8.20;86.80;;;;;;4995487;28;20179;-82
2023/03/30 08:13:19;;;;;;;7.10;4.03;;;8.10;87.40;;;;;;5008670;28;20049;-81
2023/03/30 08:15:45;;;;;;;9.00;3.72;;;8.10;88.20;;;;;;4996119;28;20042;-80
2023/03/30 08:18:14;;;;;;;7.83;3.30;;;8.10;88.60;;;;;;4997751;28;20113;-80
2023/03/30 08:20:42;;;;;;;5.35;4.38;;;8.00;88.30;;;;;;5011752;28;20025;-79
2023/03/30 08:23:09;;;;;;;8.80;4.53;;;8.00;89.50;;;;;;5007663;28;20026;-81
2023/03/30 08:25:35;;;;;;;;;;;8.10;89.90;;;;;;5003015;28;20031;-80
2023/03/30 08:28:03;;;;;;;7.28;3.58;;;8.30;89.70;;;;;;5009656;28;20382;-81
2023/03/30 08:30:28;;;;;;;;;;;8.40;89.10;;;;;;4999323;28;20113;-79
2023/03/30 08:32:55;;;;;;;5.63;3.08;;;8.50;88.80;;;;;;5019714;28;20379;-81
2023/03/30 08:35:22;;;;;;;9.68;4.38;;;8.50;88.00;;;;;;5004585;28;20033;-80
2023/03/30 08:37:48;;;;;;;6.05;3.42;;;8.50;88.30;;;;;;5017994;28;20026;-80
2023/03/30 08:40:16;;;;;;;5.80;3.92;;;8.60;88.40;;;;;;5012694;28;20022;-80
2023/03/30 08:43:33;;;;;;;9.05;5.07;;;8.70;88.60;;;;;;5009561;28;20082;-82
2023/03/30 08:46:01;;;;;;;5.72;3.85;;;8.70;89.20;;;;;;4948349;28;20031;-81
2023/03/30 08:48:32;;;;;;;4.57;3.05;;;8.60;89.10;;;;;;5024935;28;20054;-80
2023/03/30 08:51:21;;;;;;;4.57;3.00;;;8.50;89.70;;;;;;4997308;28;20034;-79
2023/03/30 08:53:52;;;;;;;7.05;3.35;;;8.30;90.10;;;;;;4990291;28;20038;-81
2023/03/30 08:56:29;;;;;;;5.28;3.08;;;8.20;90.40;;;;;;4997313;28;20435;-80
2023/03/30 08:59:04;;;;;;;;;;;8.20;90.40;;;;;;4999012;28;20018;-80
2023/03/30 09:01:51;;;;;;;5.93;3.53;;;8.10;90.50;;;;;;5002657;28;19952;-79
2023/03/30 09:04:37;;;;;;;5.78;2.40;;;8.00;90.90;;;;;;5000008;28;20026;-81
2023/03/30 09:07:16;;;;;;;3.53;2.30;;;7.90;91.30;;;;;;4998178;28;20555;-81
2023/03/30 09:09:46;;;;;;;2.80;1.70;;;7.80;91.60;;;;;;5021908;28;20050;-80
2023/03/30 09:12:49;;;;;;;2.03;1.60;;;7.70;91.60;;;;;;5002321;28;20361;-79
2023/03/30 09:15:32;;;;;;;2.03;1.60;;;7.50;91.80;;;;;;5014214;28;20140;-79
2023/03/30 09:18:16;;;;;;;5.78;1.95;;;7.20;92.40;;;;;;5000622;28;20133;-82
2023/03/30 09:20:44;;;;;;;3.80;2.20;;;7.00;93.10;;;;;;4995838;28;20037;-78
2023/03/30 09:23:16;;;;;;;3.72;1.83;;;7.00;93.30;;;;;;4997714;28;20030;-80
2023/03/30 09:26:05;;;;;;;3.33;2.20;;;7.00;93.50;;;;;;4997157;28;20072;-80
2023/03/30 09:28:43;;;;;;;2.45;1.77;;;7.10;93.70;;;;;;4998339;28;20050;-82
2023/03/30 09:31:35;;;;;;;5.22;2.17;;;7.00;93.80;;;;;;4984100;28;20015;-81
2023/03/30 09:34:12;;;;;;;5.20;1.80;;;7.00;93.90;;;;;;4995448;28;20085;-81
2023/03/30 09:36:50;;;;;;;4.10;2.03;;;7.00;94.10;;;;;;4994505;28;20049;-81
2023/03/30 09:39:22;;;;;;;6.05;2.28;;;6.90;94.10;;;;;;5000152;28;20117;-83
2023/03/30 09:42:17;;;;;;;11.10;3.03;;;6.90;94.20;;;;;;5021280;28;20026;-80
2023/03/30 09:44:49;;;;;;;3.35;1.88;;;6.90;94.30;;;;;;5022919;28;20022;-81
2023/03/30 09:47:20;;;;;;;3.15;1.98;;;6.80;94.30;;;;;;5010241;28;20160;-81
2023/03/30 09:49:48;;;;;;;3.92;2.50;;;6.70;94.40;;;;;;5005610;28;20026;-82
2023/03/30 09:52:22;;;;;;;6.22;2.75;;;6.60;94.60;;;;;;5017515;28;20022;-82
2023/03/30 09:54:49;;;;;;;5.45;2.50;;;6.50;94.70;;;;;;5009228;28;20030;-80
2023/03/30 09:57:30;;;;;;;4.85;2.30;;;6.50;95.00;;;;;;4995577;28;20044;-81
2023/03/30 09:59:58;;;;;;;3.42;2.45;;;6.50;95.00;;;;;;5011226;28;20022;-82
2023/03/30 10:02:27;;;;;;;5.43;2.30;;;6.40;95.00;;;;;;4996659;28;20034;-81
2023/03/30 10:04:56;;;;;;;7.35;2.85;;;6.50;95.20;;;;;;4998584;28;20089;-81
2023/03/30 10:07:34;;;;;;;6.75;4.07;;;6.60;95.20;;;;;;4984134;28;20022;-81
2023/03/30 10:10:22;;;;;;;4.78;3.22;;;6.70;95.20;;;;;;4998240;28;20057;-80
2023/03/30 10:12:49;;;;;;;5.63;3.65;;;6.90;95.10;;;;;;4982806;28;20065;-81
2023/03/30 10:15:17;;;;;;;6.25;3.92;;;6.70;94.90;;;;;;4997302;28;20060;-80
2023/03/30 10:17:46;;;;;;;5.07;4.03;;;6.70;95.20;;;;;;5006352;28;20049;-81
2023/03/30 10:20:38;;;;;;;5.88;3.90;;;6.80;95.30;;;;;;5018526;28;20025;-82
2023/03/30 10:23:17;;;;;;;5.57;4.05;;;6.70;95.30;;;;;;4987615;28;20076;-80
2023/03/30 10:25:48;;;;;;;7.10;4.45;;;6.70;95.50;;;;;;4996499;28;20032;-82
2023/03/30 10:28:26;;;;;;;7.63;4.28;;;6.70;95.50;;;;;;5001387;28;20029;-82
2023/03/30 10:30:56;;;;;;;7.72;3.60;;;6.60;95.40;;;;;;5000306;28;20022;-81
2023/03/30 10:33:23;;;;;;;5.57;3.42;;;6.50;95.50;;;;;;5002670;28;20019;-80
2023/03/30 10:35:52;;;;;;;5.78;3.85;;;6.40;95.70;;;;;;5003217;28;20384;-81
2023/03/30 10:38:20;;;;;;;4.90;3.58;;;6.20;95.90;;;;;;4998805;28;20468;-82
2023/03/30 10:40:47;;;;;;;5.50;4.20;;;6.20;96.10;;;;;;4999934;28;20116;-81
2023/03/30 10:43:19;;;;;;;5.78;4.50;;;6.10;96.30;;;;;;5000212;28;20029;-81
2023/03/30 10:45:55;;;;;;;4.68;3.22;;;6.10;96.30;;;;;;5001836;28;20026;-83
2023/03/30 10:48:59;;;;;;;5.72;3.90;;;6.10;96.20;;;;;;5001375;28;20370;-82
2023/03/30 10:51:31;;;;;;;6.95;3.95;;;6.10;96.30;;;;;;4997314;28;20043;-82
2023/03/30 10:54:03;;;;;;;7.03;4.18;;;6.10;96.40;;;;;;4999166;28;20023;-82
2023/03/30 10:56:36;;;;;;;5.75;3.95;;;6.10;96.10;;;;;;4997686;28;20073;-83
2023/03/30 10:59:26;;;;;;;4.00;3.47;;;6.00;95.90;;;;;;5004483;28;20022;-81
2023/03/30 11:01:59;;;;;;;4.22;3.85;;;5.90;96.00;;;;;;4999367;28;20113;-80
2023/03/30 11:04:30;;;;;;;11.50;8.23;;;6.00;95.90;;;;;;5020035;28;20030;-81
2023/03/30 11:06:58;;;;;;;7.00;4.45;;;6.00;96.00;;;;;;5007296;28;20193;-81
2023/03/30 11:09:27;;;;;;;;;;;6.00;95.80;;;;;;4999711;28;20026;-80
2023/03/30 11:12:05;;;;;;;8.00;5.47;;;6.10;95.70;;;;;;5015426;28;19917;-81
2023/03/30 11:14:58;;;;;;;7.15;3.92;;;6.00;95.60;;;;;;4998189;28;20033;-81
2023/03/30 11:18:10;;;;;;;7.53;4.82;;;6.00;95.70;;;;;;5000544;28;20034;-81
2023/03/30 11:21:07;;;;;;;13.35;4.60;;;6.00;95.60;;;;;;4924648;29;20039;-80
2023/03/30 11:23:54;;;;;;;5.25;4.38;;;5.90;95.50;;;;;;4941598;29;20490;-81
2023/03/30 11:26:23;;;;;;;;;;;6.00;95.50;;;;;;4920092;29;20052;-80
2023/03/30 11:29:04;;;;;;;5.13;3.95;;;5.90;95.20;;;;;;4943071;29;19942;-80
2023/03/30 11:31:39;;;;;;;6.65;4.00;;;5.90;95.10;;;;;;4921469;29;20059;-81
2023/03/30 11:34:16;;;;;;;6.45;4.22;;;5.80;94.80;;;;;;4939607;29;20035;-83
2023/03/30 11:37:08;;;;;;;6.20;3.22;;;5.70;95.00;;;;;;4940208;29;20036;-81
2023/03/30 11:39:40;;;;;;;5.15;3.50;;;5.70;94.90;;;;;;4920129;29;20036;-81
2023/03/30 11:42:09;;;;;;;6.05;4.70;;;5.60;94.70;;;;;;4905911;29;20044;-81
2023/03/30 11:44:35;;;;;;;6.50;3.92;;;5.60;94.70;;;;;;4938769;29;20032;-81
2023/03/30 11:47:19;;;;;;;8.10;6.05;;;5.60;94.90;;;;;;4939056;29;20031;-81
2023/03/30 11:50:22;;;;;;;9.43;4.82;;;5.60;94.90;;;;;;4939746;29;20429;-80
2023/03/30 11:53:02;;;;;;;7.20;4.40;;;5.70;94.80;;;;;;4939748;29;20090;-81
2023/03/30 11:55:47;;;;;;;5.50;3.97;;;5.90;94.70;;;;;;4988854;28;20137;-81
2023/03/30 11:58:40;;;;;;;5.47;3.67;;;5.90;94.40;;;;;;5004935;28;20059;-82
2023/03/30 12:01:34;;;;;;;8.45;3.55;;;5.90;94.30;;;;;;5009334;28;20022;-80
2023/03/30 12:04:11;;;;;;;6.10;3.92;;;5.80;94.30;;;;;;4983914;28;20018;-82
2023/03/30 12:06:58;;;;;;;5.85;4.15;;;5.80;94.50;;;;;;4996752;28;20113;-82
2023/03/30 12:09:28;;;;;;;5.18;3.83;;;5.80;94.50;;;;;;4998008;28;20532;-81
2023/03/30 12:11:56;;;;;;;5.05;4.43;;;5.80;94.50;;;;;;4996152;28;20041;-81
2023/03/30 12:14:36;;;;;;;9.88;4.80;;;5.70;94.50;;;;;;4996900;28;20502;-80
2023/03/30 12:17:25;;;;;;;10.77;4.90;;;5.60;94.80;;;;;;5005117;28;20050;-80
2023/03/30 12:20:14;;;;;;;6.55;4.07;;;5.70;95.00;;;;;;5010625;28;20085;-81
2023/03/30 12:22:57;;;;;;;8.20;4.13;;;5.60;94.90;;;;;;4988197;28;20037;-81
2023/03/30 12:25:32;;;;;;;7.75;4.85;;;5.50;95.00;;;;;;4990362;28;20031;-82
2023/03/30 12:28:09;;;;;;;16.38;4.30;;;5.40;95.10;;;;;;4996377;28;20084;-80
2023/03/30 12:30:52;;;;;;;5.82;4.47;;;5.30;95.00;;;;;;4996241;28;20019;-81
2023/03/30 12:33:45;;;;;;;4.53;3.70;;;5.20;95.30;;;;;;4998895;28;20033;-82
2023/03/30 12:36:38;;;;;;;12.05;4.55;;;5.10;95.30;;;;;;5001598;28;20022;-82
2023/03/30 12:39:20;;;;;;;10.20;5.70;;;5.10;95.30;;;;;;5001495;28;20030;-81
2023/03/30 12:41:56;;;;;;;7.65;3.85;;;5.10;95.30;;;;;;4997127;28;20053;-82
2023/03/30 12:45:03;;;;;;;5.82;3.70;;;5.20;95.20;;;;;;4997415;28;20042;-81
2023/03/30 12:47:52;;;;;;;5.20;4.15;;;5.20;95.20;;;;;;4989070;28;20034;-81
2023/03/30 12:50:37;;;;;;;3.80;3.10;;;5.20;95.10;;;;;;5026329;28;20034;-80
2023/03/30 12:53:24;;;;;;;5.80;4.05;;;5.10;94.90;;;;;;4984031;28;20477;-81
2023/03/30 12:56:04;;;;;;;7.20;4.00;;;5.10;95.10;;;;;;5007544;28;20038;-81
2023/03/30 12:59:07;;;;;;;7.30;4.13;;;5.00;95.30;;;;;;4999295;28;20046;-81
2023/03/30 13:01:59;;;;;;;5.47;4.07;;;5.00;95.40;;;;;;5011959;28;20064;-81
2023/03/30 13:04:28;;;;;;;5.10;4.38;;;4.90;95.40;;;;;;5007915;28;20105;-79
2023/03/30 13:07:14;;;;;;;7.35;3.80;;;4.90;95.50;;;;;;4999047;28;20024;-81
2023/03/30 13:09:58;;;;;;;8.45;4.55;;;4.90;95.60;;;;;;5015889;28;20022;-80
2023/03/30 13:12:30;;;;;;;6.05;3.95;;;4.90;95.70;;;;;;5012434;28;20026;-82
2023/03/30 13:15:17;;;;;;;9.23;4.47;;;4.80;95.80;;;;;;4996490;28;20031;-81
2023/03/30 13:18:02;;;;;;;9.05;4.55;;;4.80;95.80;;;;;;4999038;28;20078;-83
2023/03/30 13:20:34;;;;;;;5.15;4.10;;;4.70;95.80;;;;;;4997339;28;20037;-79
2023/03/30 13:23:13;;;;;;;3.38;2.92;;;4.70;96.00;;;;;;5010721;28;20106;-81
2023/03/30 13:26:24;;;;;;;4.95;3.92;;;4.60;95.90;;;;;;5014771;28;20034;-80
2023/03/30 13:29:14;;;;;;;4.55;4.15;;;4.50;96.00;;;;;;5004318;28;20029;-81